createdAt,value
2018-06-12T00:00:50.835Z,58.90
2018-06-12T00:03:18.046Z,58.80
2018-06-12T00:05:45.254Z,58.80
2018-06-12T00:08:12.464Z,58.40
2018-06-12T00:10:39.642Z,58.80
2018-06-12T00:13:06.950Z,58.80
2018-06-12T00:15:34.286Z,58.80
2018-06-12T00:18:01.478Z,58.80
2018-06-12T00:20:28.789Z,58.80
2018-06-12T00:22:56.010Z,58.80
2018-06-12T00:25:23.283Z,58.80
2018-06-12T00:27:50.499Z,58.00
2018-06-12T00:30:17.737Z,58.80
2018-06-12T00:35:12.140Z,58.80
2018-06-12T00:37:39.370Z,58.80
2018-06-12T00:40:06.568Z,58.70
2018-06-12T00:42:33.795Z,58.80
2018-06-12T00:45:00.975Z,58.80
2018-06-12T00:47:28.146Z,58.70
2018-06-12T00:49:55.351Z,58.70
2018-06-12T00:52:22.691Z,58.70
2018-06-12T00:54:49.939Z,58.80
2018-06-12T00:57:17.126Z,59.30
2018-06-12T00:59:44.332Z,58.10
2018-06-12T01:02:11.629Z,58.80
2018-06-12T01:04:38.834Z,58.80
2018-06-12T01:07:06.030Z,58.80
2018-06-12T01:09:33.236Z,58.90
2018-06-12T01:12:00.427Z,58.80
2018-06-12T01:16:54.859Z,58.80
2018-06-12T01:19:22.075Z,58.80
2018-06-12T01:21:49.278Z,58.80
2018-06-12T01:24:16.475Z,58.90
2018-06-12T01:26:43.667Z,58.80
2018-06-12T01:29:10.880Z,58.90
2018-06-12T01:31:38.086Z,58.80
2018-06-12T01:34:05.332Z,58.60
2018-06-12T01:36:32.523Z,58.90
2018-06-12T01:38:59.728Z,58.40
2018-06-12T01:41:26.947Z,59.00
2018-06-12T01:43:54.138Z,58.90
2018-06-12T01:46:21.345Z,58.90
2018-06-12T01:48:48.634Z,58.20
2018-06-12T01:51:15.838Z,58.90
2018-06-12T01:53:43.046Z,58.90
2018-06-12T01:56:10.250Z,58.90
2018-06-12T01:58:37.454Z,59.00
2018-06-12T02:01:04.663Z,59.00
2018-06-12T02:03:31.921Z,58.80
2018-06-12T02:05:59.110Z,58.90
2018-06-12T02:08:26.310Z,58.80
2018-06-12T02:10:53.515Z,58.80
2018-06-12T02:13:20.716Z,59.30
2018-06-12T02:18:15.147Z,58.80
2018-06-12T02:23:09.551Z,58.80
2018-06-12T02:25:36.773Z,58.80
2018-06-12T02:28:04.063Z,58.80
2018-06-12T02:30:31.279Z,58.30
2018-06-12T02:32:58.807Z,58.90
2018-06-12T02:35:26.003Z,58.90
2018-06-12T02:40:20.402Z,58.90
2018-06-12T02:42:47.900Z,58.90
2018-06-12T02:47:42.428Z,58.90
2018-06-12T02:50:09.664Z,59.00
2018-06-12T02:52:36.863Z,59.00
2018-06-12T02:55:04.079Z,59.00
2018-06-12T02:57:31.275Z,58.90
2018-06-12T02:59:58.486Z,58.90
2018-06-12T03:02:25.714Z,59.40
2018-06-12T03:04:55.249Z,58.90
2018-06-12T03:07:22.439Z,58.90
2018-06-12T03:09:53.478Z,59.10
2018-06-12T03:12:20.779Z,59.00
2018-06-12T03:14:48.982Z,59.00
2018-06-12T03:17:16.198Z,59.10
2018-06-12T03:19:43.422Z,59.10
2018-06-12T03:22:10.626Z,59.10
2018-06-12T03:24:37.832Z,59.30
2018-06-12T03:27:05.032Z,59.10
2018-06-12T03:29:32.281Z,59.20
2018-06-12T03:31:59.487Z,59.30
2018-06-12T16:38:48.562Z,54.50
2018-06-12T16:41:15.867Z,55.30
2018-06-12T16:43:43.292Z,55.50
2018-06-12T16:46:10.571Z,56.30
2018-06-12T16:48:37.830Z,56.60
2018-06-12T16:51:05.412Z,56.80
2018-06-12T16:53:33.132Z,57.10
2018-06-12T16:56:01.853Z,57.20
2018-06-12T16:58:29.151Z,57.50
2018-06-12T17:00:56.448Z,57.40
2018-06-12T17:03:23.697Z,56.30
2018-06-12T17:05:51.013Z,57.00
2018-06-12T17:08:18.242Z,57.10
2018-06-12T17:10:46.378Z,55.90
2018-06-12T17:13:13.628Z,56.80
2018-06-12T17:15:40.868Z,56.80
2018-06-12T17:18:08.138Z,56.90
2018-06-12T17:20:35.427Z,56.50
2018-06-12T17:23:03.919Z,55.90
2018-06-12T17:25:31.234Z,55.50
2018-06-12T17:27:58.508Z,56.80
2018-06-12T17:30:25.768Z,56.50
2018-06-12T17:32:53.012Z,56.60
2018-06-12T17:35:20.321Z,56.90
2018-06-12T17:37:47.627Z,56.80
2018-06-12T17:40:15.044Z,56.00
2018-06-12T17:42:42.291Z,56.80
2018-06-12T17:45:09.578Z,57.20
2018-06-12T17:47:40.697Z,57.30
2018-06-12T17:50:08.013Z,57.90
2018-06-12T17:52:35.328Z,58.20
2018-06-12T17:55:03.939Z,58.30
2018-06-12T17:57:31.407Z,58.60
2018-06-12T17:59:58.663Z,59.20
2018-06-12T18:02:25.897Z,58.70
2018-06-12T18:04:53.154Z,59.00
2018-06-12T18:07:20.577Z,59.00
2018-06-12T18:09:47.835Z,58.60
2018-06-12T18:12:15.171Z,58.60
2018-06-12T18:14:42.479Z,58.60
2018-06-12T18:17:09.807Z,58.40
2018-06-12T18:19:37.396Z,58.50
2018-06-12T18:22:04.976Z,58.40
2018-06-12T18:24:32.233Z,58.50
2018-06-12T18:27:02.532Z,58.10
2018-06-12T18:29:30.170Z,58.20
2018-06-12T18:34:24.848Z,58.60
2018-06-12T18:36:52.119Z,58.30
2018-06-12T18:39:21.141Z,59.40
2018-06-12T18:41:48.412Z,59.40
2018-06-12T18:44:15.723Z,59.40
2018-06-12T18:46:42.971Z,59.70
2018-06-12T18:49:10.258Z,59.90
2018-06-12T18:51:37.511Z,60.50
2018-06-12T18:56:41.156Z,60.30
2018-06-12T18:59:14.830Z,61.00
2018-06-12T19:01:42.089Z,60.90
2018-06-12T19:04:10.453Z,61.70
2018-06-12T19:06:41.184Z,61.60
2018-06-12T19:09:08.564Z,61.60
2018-06-12T19:11:36.487Z,60.70
2018-06-12T19:14:04.509Z,62.90
2018-06-12T19:16:32.423Z,62.10
2018-06-12T19:18:59.760Z,62.50
2018-06-12T19:21:27.168Z,62.50
2018-06-12T19:23:57.529Z,62.10
2018-06-12T19:26:25.636Z,62.70
2018-06-12T19:31:21.231Z,61.00
2018-06-12T19:33:48.652Z,61.00
2018-06-12T19:36:16.929Z,61.00
2018-06-12T19:38:47.551Z,61.40
2018-06-12T19:41:15.194Z,61.50
2018-06-12T19:43:42.624Z,60.70
2018-06-12T19:46:09.975Z,60.70
2018-06-12T19:48:37.341Z,61.70
2018-06-12T19:51:04.847Z,61.60
2018-06-12T19:53:32.332Z,62.10
2018-06-12T19:55:59.768Z,62.10
2018-06-12T19:58:27.034Z,61.80
2018-06-12T20:00:54.428Z,63.30
2018-06-12T20:03:21.722Z,62.40
2018-06-12T20:05:49.211Z,61.40
2018-06-12T20:08:16.616Z,62.60
2018-06-12T20:10:45.959Z,61.70
2018-06-12T20:13:13.184Z,63.00
2018-06-12T20:15:40.476Z,63.20
2018-06-12T20:18:07.704Z,63.40
2018-06-12T20:20:34.966Z,63.60
2018-06-12T20:23:02.273Z,63.40
2018-06-12T20:25:29.545Z,63.00
2018-06-12T20:27:56.778Z,63.50
2018-06-12T20:30:24.100Z,63.60
2018-06-12T20:32:51.368Z,63.00
2018-06-12T20:35:18.703Z,63.30
2018-06-12T20:37:46.014Z,62.00
2018-06-12T20:40:13.453Z,63.20
2018-06-12T20:42:40.904Z,63.50
2018-06-12T20:45:08.159Z,63.60
2018-06-12T20:47:35.444Z,63.40
2018-06-12T20:52:30.318Z,63.20
2018-06-12T20:54:57.652Z,64.40
2018-06-12T20:57:24.871Z,61.60
2018-06-12T20:59:52.483Z,63.00
2018-06-12T21:02:19.840Z,62.60
2018-06-12T21:04:47.125Z,63.50
2018-06-12T21:07:14.608Z,62.30
2018-06-12T21:12:09.023Z,61.70
2018-06-12T21:14:36.661Z,61.70
2018-06-12T21:17:04.025Z,61.30
2018-06-12T21:19:31.344Z,61.60
2018-06-12T21:21:58.828Z,61.40
2018-06-12T21:24:26.185Z,61.30
2018-06-12T21:26:53.867Z,61.10
2018-06-12T21:29:21.128Z,61.50
2018-06-12T21:31:48.600Z,61.00
2018-06-12T21:34:15.898Z,59.80
2018-06-12T21:36:43.259Z,59.90
2018-06-12T21:39:13.043Z,61.40
2018-06-12T21:44:10.018Z,61.00
2018-06-12T21:46:37.794Z,61.00
2018-06-12T21:51:32.386Z,61.60
2018-06-12T21:53:59.847Z,60.70
2018-06-12T21:56:29.335Z,62.20
2018-06-12T21:58:56.816Z,63.30
2018-06-12T22:01:24.183Z,62.10
2018-06-12T22:03:51.543Z,63.00
2018-06-12T22:06:18.924Z,62.00
2018-06-12T22:08:46.261Z,62.20
2018-06-12T22:11:13.612Z,62.20
2018-06-12T22:16:08.555Z,62.30
2018-06-12T22:18:36.276Z,62.80
2018-06-12T22:21:03.941Z,62.90
2018-06-12T22:23:32.015Z,62.70
2018-06-12T22:25:59.353Z,62.50
2018-06-12T22:28:27.008Z,62.50
2018-06-12T22:31:12.335Z,62.80
2018-06-12T22:33:39.980Z,62.60
2018-06-12T22:36:17.459Z,61.60
2018-06-12T22:38:44.971Z,63.20
2018-06-12T22:41:12.313Z,61.10
2018-06-12T22:43:39.858Z,61.80
2018-06-12T22:46:07.309Z,60.30
2018-06-12T22:48:34.681Z,62.30
2018-06-12T22:51:02.201Z,62.70
2018-06-12T22:53:29.587Z,61.70
2018-06-12T22:55:59.948Z,62.50
2018-06-12T22:58:27.404Z,61.30
2018-06-12T23:00:54.663Z,61.60
2018-06-12T23:03:21.924Z,60.50
2018-06-12T23:05:49.183Z,61.60
2018-06-12T23:08:16.635Z,61.20
2018-06-12T23:10:44.039Z,61.00
2018-06-12T23:13:11.386Z,60.20
2018-06-12T23:15:38.831Z,59.60
2018-06-12T23:18:06.784Z,61.00
2018-06-12T23:20:50.295Z,60.70
2018-06-12T23:25:44.911Z,61.40
2018-06-12T23:28:12.138Z,59.60
2018-06-12T23:30:39.489Z,61.00
2018-06-12T23:33:06.727Z,60.90
2018-06-12T23:35:33.940Z,60.00
2018-06-12T23:38:01.188Z,60.50
2018-06-12T23:40:28.503Z,61.10
2018-06-12T23:42:55.914Z,61.00
2018-06-12T23:45:23.159Z,60.30
2018-06-12T23:47:50.436Z,60.10
2018-06-12T23:50:17.691Z,60.50
2018-06-12T23:52:44.977Z,60.70
2018-06-12T23:55:12.281Z,60.40
2018-06-12T23:57:39.541Z,59.50
